sensor_id;sensor_type;location;lat;lon;timestamp;P1;durP1;ratioP1;P2;durP2;ratioP2
43152;SDS011;28756;49.064;9.290;2023-07-24T00:01:58;7.97;;;4.85;;
43152;SDS011;28756;49.064;9.290;2023-07-24T00:04:24;6.90;;;4.78;;
43152;SDS011;28756;49.064;9.290;2023-07-24T00:06:50;7.13;;;4.63;;
43152;SDS011;28756;49.064;9.290;2023-07-24T00:09:16;10.52;;;5.22;;
43152;SDS011;28756;49.064;9.290;2023-07-24T00:11:41;8.13;;;5.10;;
43152;SDS011;28756;49.064;9.290;2023-07-24T00:14:07;8.13;;;5.03;;
43152;SDS011;28756;49.064;9.290;2023-07-24T00:16:33;7.03;;;4.75;;
43152;SDS011;28756;49.064;9.290;2023-07-24T00:18:59;7.72;;;5.05;;
43152;SDS011;28756;49.064;9.290;2023-07-24T00:21:25;5.90;;;4.30;;
43152;SDS011;28756;49.064;9.290;2023-07-24T00:23:50;7.13;;;4.93;;
43152;SDS011;28756;49.064;9.290;2023-07-24T00:26:16;5.57;;;4.05;;
43152;SDS011;28756;49.064;9.290;2023-07-24T00:28:42;7.63;;;4.80;;
43152;SDS011;28756;49.064;9.290;2023-07-24T00:31:08;9.00;;;4.55;;
43152;SDS011;28756;49.064;9.290;2023-07-24T00:33:33;6.20;;;4.18;;
43152;SDS011;28756;49.064;9.290;2023-07-24T00:35:59;6.45;;;4.03;;
43152;SDS011;28756;49.064;9.290;2023-07-24T00:38:25;7.88;;;5.40;;
43152;SDS011;28756;49.064;9.290;2023-07-24T00:40:51;6.05;;;4.20;;
43152;SDS011;28756;49.064;9.290;2023-07-24T00:43:17;7.15;;;4.57;;
43152;SDS011;28756;49.064;9.290;2023-07-24T00:45:43;5.68;;;4.25;;
43152;SDS011;28756;49.064;9.290;2023-07-24T00:48:12;5.47;;;4.13;;
43152;SDS011;28756;49.064;9.290;2023-07-24T00:50:37;5.80;;;3.83;;
43152;SDS011;28756;49.064;9.290;2023-07-24T00:53:04;6.68;;;4.43;;
43152;SDS011;28756;49.064;9.290;2023-07-24T00:55:30;6.20;;;4.30;;
43152;SDS011;28756;49.064;9.290;2023-07-24T00:57:59;5.70;;;4.03;;
43152;SDS011;28756;49.064;9.290;2023-07-24T01:00:26;6.00;;;3.92;;
43152;SDS011;28756;49.064;9.290;2023-07-24T01:02:52;5.57;;;4.00;;
43152;SDS011;28756;49.064;9.290;2023-07-24T01:05:20;5.93;;;3.92;;
43152;SDS011;28756;49.064;9.290;2023-07-24T01:07:50;5.07;;;3.78;;
43152;SDS011;28756;49.064;9.290;2023-07-24T01:10:17;6.78;;;3.88;;
43152;SDS011;28756;49.064;9.290;2023-07-24T01:12:51;5.97;;;4.30;;
43152;SDS011;28756;49.064;9.290;2023-07-24T01:18:13;6.05;;;4.47;;
43152;SDS011;28756;49.064;9.290;2023-07-24T01:20:50;5.88;;;4.20;;
43152;SDS011;28756;49.064;9.290;2023-07-24T01:23:38;5.55;;;3.80;;
43152;SDS011;28756;49.064;9.290;2023-07-24T01:26:34;6.35;;;4.65;;
43152;SDS011;28756;49.064;9.290;2023-07-24T01:29:01;5.40;;;4.15;;
43152;SDS011;28756;49.064;9.290;2023-07-24T01:31:27;5.82;;;4.32;;
43152;SDS011;28756;49.064;9.290;2023-07-24T01:33:52;5.18;;;4.20;;
43152;SDS011;28756;49.064;9.290;2023-07-24T01:36:18;6.60;;;4.82;;
43152;SDS011;28756;49.064;9.290;2023-07-24T01:38:44;6.50;;;4.57;;
43152;SDS011;28756;49.064;9.290;2023-07-24T01:41:12;8.02;;;5.15;;
43152;SDS011;28756;49.064;9.290;2023-07-24T01:43:38;6.85;;;4.90;;
43152;SDS011;28756;49.064;9.290;2023-07-24T01:46:03;7.47;;;5.18;;
43152;SDS011;28756;49.064;9.290;2023-07-24T01:48:29;7.50;;;5.18;;
43152;SDS011;28756;49.064;9.290;2023-07-24T01:50:55;6.53;;;4.55;;
43152;SDS011;28756;49.064;9.290;2023-07-24T01:53:21;6.55;;;4.93;;
43152;SDS011;28756;49.064;9.290;2023-07-24T01:55:47;6.90;;;4.72;;
43152;SDS011;28756;49.064;9.290;2023-07-24T01:58:12;6.00;;;4.63;;
43152;SDS011;28756;49.064;9.290;2023-07-24T02:00:38;6.63;;;4.25;;
43152;SDS011;28756;49.064;9.290;2023-07-24T02:03:04;6.43;;;4.75;;
43152;SDS011;28756;49.064;9.290;2023-07-24T02:05:30;6.07;;;4.43;;
43152;SDS011;28756;49.064;9.290;2023-07-24T02:07:56;6.78;;;4.63;;
43152;SDS011;28756;49.064;9.290;2023-07-24T02:10:22;6.47;;;4.55;;
43152;SDS011;28756;49.064;9.290;2023-07-24T02:12:48;7.07;;;5.22;;
43152;SDS011;28756;49.064;9.290;2023-07-24T02:15:13;7.47;;;5.13;;
43152;SDS011;28756;49.064;9.290;2023-07-24T02:17:39;6.28;;;4.25;;
43152;SDS011;28756;49.064;9.290;2023-07-24T02:20:07;5.97;;;4.18;;
43152;SDS011;28756;49.064;9.290;2023-07-24T02:22:33;5.93;;;4.28;;
43152;SDS011;28756;49.064;9.290;2023-07-24T02:25:00;5.18;;;3.63;;
43152;SDS011;28756;49.064;9.290;2023-07-24T02:27:27;6.25;;;4.18;;
43152;SDS011;28756;49.064;9.290;2023-07-24T02:29:56;7.30;;;4.68;;
43152;SDS011;28756;49.064;9.290;2023-07-24T02:32:22;6.00;;;4.32;;
43152;SDS011;28756;49.064;9.290;2023-07-24T02:34:51;5.93;;;4.30;;
43152;SDS011;28756;49.064;9.290;2023-07-24T02:37:18;6.47;;;4.07;;
43152;SDS011;28756;49.064;9.290;2023-07-24T02:39:44;5.55;;;3.65;;
43152;SDS011;28756;49.064;9.290;2023-07-24T02:42:11;5.00;;;3.45;;
43152;SDS011;28756;49.064;9.290;2023-07-24T02:44:37;5.88;;;3.90;;
43152;SDS011;28756;49.064;9.290;2023-07-24T02:47:03;5.90;;;4.32;;
43152;SDS011;28756;49.064;9.290;2023-07-24T02:49:29;7.78;;;4.95;;
43152;SDS011;28756;49.064;9.290;2023-07-24T02:51:55;8.65;;;5.10;;
43152;SDS011;28756;49.064;9.290;2023-07-24T02:54:21;7.47;;;4.95;;
43152;SDS011;28756;49.064;9.290;2023-07-24T02:56:47;5.53;;;4.30;;
43152;SDS011;28756;49.064;9.290;2023-07-24T02:59:12;7.07;;;5.13;;
43152;SDS011;28756;49.064;9.290;2023-07-24T03:01:38;5.40;;;4.15;;
43152;SDS011;28756;49.064;9.290;2023-07-24T03:04:04;5.18;;;3.92;;
43152;SDS011;28756;49.064;9.290;2023-07-24T03:06:31;6.47;;;4.70;;
43152;SDS011;28756;49.064;9.290;2023-07-24T03:08:57;6.90;;;4.88;;
43152;SDS011;28756;49.064;9.290;2023-07-24T03:11:23;6.63;;;4.68;;
43152;SDS011;28756;49.064;9.290;2023-07-24T03:13:49;6.45;;;4.68;;
43152;SDS011;28756;49.064;9.290;2023-07-24T03:16:14;6.80;;;4.38;;
43152;SDS011;28756;49.064;9.290;2023-07-24T03:18:42;7.57;;;4.13;;
43152;SDS011;28756;49.064;9.290;2023-07-24T03:21:08;6.38;;;4.50;;
43152;SDS011;28756;49.064;9.290;2023-07-24T03:23:34;6.13;;;4.32;;
43152;SDS011;28756;49.064;9.290;2023-07-24T03:26:00;6.65;;;4.63;;
43152;SDS011;28756;49.064;9.290;2023-07-24T03:28:26;7.05;;;4.93;;
43152;SDS011;28756;49.064;9.290;2023-07-24T03:30:52;6.88;;;4.55;;
43152;SDS011;28756;49.064;9.290;2023-07-24T03:33:18;5.95;;;4.43;;
43152;SDS011;28756;49.064;9.290;2023-07-24T03:35:44;7.28;;;5.22;;
43152;SDS011;28756;49.064;9.290;2023-07-24T03:38:10;8.15;;;5.35;;
43152;SDS011;28756;49.064;9.290;2023-07-24T03:40:36;7.35;;;5.35;;
43152;SDS011;28756;49.064;9.290;2023-07-24T03:43:02;6.50;;;4.47;;
43152;SDS011;28756;49.064;9.290;2023-07-24T03:45:28;6.85;;;4.97;;
43152;SDS011;28756;49.064;9.290;2023-07-24T03:47:54;6.50;;;4.75;;
43152;SDS011;28756;49.064;9.290;2023-07-24T03:50:19;7.75;;;5.07;;
43152;SDS011;28756;49.064;9.290;2023-07-24T03:52:45;7.03;;;5.22;;
43152;SDS011;28756;49.064;9.290;2023-07-24T03:55:11;6.13;;;4.35;;
43152;SDS011;28756;49.064;9.290;2023-07-24T03:57:37;6.10;;;4.50;;
43152;SDS011;28756;49.064;9.290;2023-07-24T04:00:03;6.93;;;4.93;;
43152;SDS011;28756;49.064;9.290;2023-07-24T04:02:29;7.32;;;5.30;;
43152;SDS011;28756;49.064;9.290;2023-07-24T04:04:55;6.20;;;4.63;;
43152;SDS011;28756;49.064;9.290;2023-07-24T04:07:21;6.43;;;4.53;;
43152;SDS011;28756;49.064;9.290;2023-07-24T04:09:47;5.82;;;4.57;;
43152;SDS011;28756;49.064;9.290;2023-07-24T04:12:12;9.18;;;5.15;;
43152;SDS011;28756;49.064;9.290;2023-07-24T04:14:38;6.43;;;4.95;;
43152;SDS011;28756;49.064;9.290;2023-07-24T04:17:04;6.65;;;5.10;;
43152;SDS011;28756;49.064;9.290;2023-07-24T04:19:30;6.95;;;5.25;;
43152;SDS011;28756;49.064;9.290;2023-07-24T04:21:56;5.85;;;4.63;;
43152;SDS011;28756;49.064;9.290;2023-07-24T04:24:22;6.18;;;4.72;;
43152;SDS011;28756;49.064;9.290;2023-07-24T04:26:47;6.03;;;4.20;;
43152;SDS011;28756;49.064;9.290;2023-07-24T04:29:13;6.05;;;4.55;;
43152;SDS011;28756;49.064;9.290;2023-07-24T04:31:39;5.68;;;4.45;;
43152;SDS011;28756;49.064;9.290;2023-07-24T04:34:05;7.15;;;5.13;;
43152;SDS011;28756;49.064;9.290;2023-07-24T04:36:31;7.43;;;4.82;;
43152;SDS011;28756;49.064;9.290;2023-07-24T04:38:57;7.45;;;4.90;;
43152;SDS011;28756;49.064;9.290;2023-07-24T04:41:22;7.88;;;4.90;;
43152;SDS011;28756;49.064;9.290;2023-07-24T04:43:48;6.47;;;4.80;;
43152;SDS011;28756;49.064;9.290;2023-07-24T04:46:14;7.13;;;4.80;;
43152;SDS011;28756;49.064;9.290;2023-07-24T04:48:40;7.20;;;5.15;;
43152;SDS011;28756;49.064;9.290;2023-07-24T04:51:05;7.40;;;5.50;;
43152;SDS011;28756;49.064;9.290;2023-07-24T04:53:31;7.22;;;4.50;;
43152;SDS011;28756;49.064;9.290;2023-07-24T04:55:57;7.28;;;5.10;;
43152;SDS011;28756;49.064;9.290;2023-07-24T04:58:23;6.60;;;4.70;;
43152;SDS011;28756;49.064;9.290;2023-07-24T05:00:49;5.93;;;4.38;;
43152;SDS011;28756;49.064;9.290;2023-07-24T05:03:15;6.68;;;4.78;;
43152;SDS011;28756;49.064;9.290;2023-07-24T05:05:42;7.00;;;4.97;;
43152;SDS011;28756;49.064;9.290;2023-07-24T05:08:08;6.63;;;4.90;;
43152;SDS011;28756;49.064;9.290;2023-07-24T05:10:36;6.90;;;5.40;;
43152;SDS011;28756;49.064;9.290;2023-07-24T05:13:02;7.00;;;5.38;;
43152;SDS011;28756;49.064;9.290;2023-07-24T05:15:28;8.88;;;5.72;;
43152;SDS011;28756;49.064;9.290;2023-07-24T05:17:54;8.43;;;5.47;;
43152;SDS011;28756;49.064;9.290;2023-07-24T05:20:20;6.63;;;5.15;;
43152;SDS011;28756;49.064;9.290;2023-07-24T05:22:46;7.63;;;4.93;;
43152;SDS011;28756;49.064;9.290;2023-07-24T05:25:12;6.90;;;5.22;;
43152;SDS011;28756;49.064;9.290;2023-07-24T05:27:37;7.93;;;5.55;;
43152;SDS011;28756;49.064;9.290;2023-07-24T05:30:04;7.72;;;5.63;;
43152;SDS011;28756;49.064;9.290;2023-07-24T05:32:31;7.72;;;5.60;;
43152;SDS011;28756;49.064;9.290;2023-07-24T05:34:57;5.80;;;4.65;;
43152;SDS011;28756;49.064;9.290;2023-07-24T05:37:22;6.80;;;4.75;;
43152;SDS011;28756;49.064;9.290;2023-07-24T05:39:48;6.30;;;4.78;;
43152;SDS011;28756;49.064;9.290;2023-07-24T05:42:14;6.68;;;5.00;;
43152;SDS011;28756;49.064;9.290;2023-07-24T05:44:40;6.72;;;4.80;;
43152;SDS011;28756;49.064;9.290;2023-07-24T05:47:05;9.55;;;5.43;;
43152;SDS011;28756;49.064;9.290;2023-07-24T05:49:31;6.85;;;4.68;;
43152;SDS011;28756;49.064;9.290;2023-07-24T05:51:57;6.63;;;5.00;;
43152;SDS011;28756;49.064;9.290;2023-07-24T05:54:23;7.30;;;4.50;;
43152;SDS011;28756;49.064;9.290;2023-07-24T05:56:49;6.72;;;4.95;;
43152;SDS011;28756;49.064;9.290;2023-07-24T05:59:16;5.78;;;4.38;;
43152;SDS011;28756;49.064;9.290;2023-07-24T06:01:42;10.05;;;5.18;;
43152;SDS011;28756;49.064;9.290;2023-07-24T06:04:08;6.70;;;4.65;;
43152;SDS011;28756;49.064;9.290;2023-07-24T06:06:34;6.13;;;4.75;;
43152;SDS011;28756;49.064;9.290;2023-07-24T06:09:01;6.63;;;5.03;;
43152;SDS011;28756;49.064;9.290;2023-07-24T06:11:31;7.95;;;5.60;;
43152;SDS011;28756;49.064;9.290;2023-07-24T06:13:56;7.38;;;5.10;;
43152;SDS011;28756;49.064;9.290;2023-07-24T06:16:22;7.32;;;5.53;;
43152;SDS011;28756;49.064;9.290;2023-07-24T06:18:48;7.38;;;5.50;;
43152;SDS011;28756;49.064;9.290;2023-07-24T06:21:14;7.07;;;5.28;;
43152;SDS011;28756;49.064;9.290;2023-07-24T06:23:40;7.90;;;4.93;;
43152;SDS011;28756;49.064;9.290;2023-07-24T06:26:05;8.07;;;5.47;;
43152;SDS011;28756;49.064;9.290;2023-07-24T06:28:31;8.23;;;5.53;;
43152;SDS011;28756;49.064;9.290;2023-07-24T06:30:58;7.82;;;5.38;;
43152;SDS011;28756;49.064;9.290;2023-07-24T06:33:24;7.40;;;5.15;;
43152;SDS011;28756;49.064;9.290;2023-07-24T06:35:50;8.32;;;5.90;;
43152;SDS011;28756;49.064;9.290;2023-07-24T06:38:16;7.05;;;5.60;;
43152;SDS011;28756;49.064;9.290;2023-07-24T06:40:42;8.98;;;6.10;;
43152;SDS011;28756;49.064;9.290;2023-07-24T06:43:08;8.77;;;5.63;;
43152;SDS011;28756;49.064;9.290;2023-07-24T06:45:33;6.80;;;5.22;;
43152;SDS011;28756;49.064;9.290;2023-07-24T06:47:59;8.48;;;5.57;;
43152;SDS011;28756;49.064;9.290;2023-07-24T06:50:25;9.07;;;5.93;;
43152;SDS011;28756;49.064;9.290;2023-07-24T06:52:51;8.88;;;5.47;;
43152;SDS011;28756;49.064;9.290;2023-07-24T06:55:18;7.15;;;5.00;;
43152;SDS011;28756;49.064;9.290;2023-07-24T06:57:45;7.75;;;5.32;;
43152;SDS011;28756;49.064;9.290;2023-07-24T07:00:11;7.22;;;5.20;;
43152;SDS011;28756;49.064;9.290;2023-07-24T07:02:38;7.28;;;5.40;;
43152;SDS011;28756;49.064;9.290;2023-07-24T07:05:04;7.22;;;5.30;;
43152;SDS011;28756;49.064;9.290;2023-07-24T07:07:30;11.10;;;5.55;;
43152;SDS011;28756;49.064;9.290;2023-07-24T07:09:57;7.93;;;5.15;;
43152;SDS011;28756;49.064;9.290;2023-07-24T07:12:23;8.80;;;5.47;;
43152;SDS011;28756;49.064;9.290;2023-07-24T07:14:49;8.80;;;5.82;;
43152;SDS011;28756;49.064;9.290;2023-07-24T07:17:14;10.75;;;6.53;;
43152;SDS011;28756;49.064;9.290;2023-07-24T07:19:40;11.27;;;6.35;;
43152;SDS011;28756;49.064;9.290;2023-07-24T07:22:06;8.48;;;6.10;;
43152;SDS011;28756;49.064;9.290;2023-07-24T07:24:32;9.35;;;6.35;;
43152;SDS011;28756;49.064;9.290;2023-07-24T07:26:58;7.93;;;6.07;;
43152;SDS011;28756;49.064;9.290;2023-07-24T07:29:23;7.43;;;5.70;;
43152;SDS011;28756;49.064;9.290;2023-07-24T07:31:49;7.18;;;5.13;;
43152;SDS011;28756;49.064;9.290;2023-07-24T07:34:15;6.40;;;5.10;;
43152;SDS011;28756;49.064;9.290;2023-07-24T07:36:41;7.43;;;5.60;;
43152;SDS011;28756;49.064;9.290;2023-07-24T07:39:07;7.55;;;5.40;;
43152;SDS011;28756;49.064;9.290;2023-07-24T07:41:34;7.00;;;4.70;;
43152;SDS011;28756;49.064;9.290;2023-07-24T07:44:00;6.97;;;4.60;;
43152;SDS011;28756;49.064;9.290;2023-07-24T07:46:26;6.65;;;5.05;;
43152;SDS011;28756;49.064;9.290;2023-07-24T07:48:51;8.45;;;5.68;;
43152;SDS011;28756;49.064;9.290;2023-07-24T07:51:17;6.97;;;5.22;;
43152;SDS011;28756;49.064;9.290;2023-07-24T07:53:43;9.75;;;5.20;;
43152;SDS011;28756;49.064;9.290;2023-07-24T07:56:09;7.57;;;5.43;;
43152;SDS011;28756;49.064;9.290;2023-07-24T07:58:35;12.40;;;6.10;;
43152;SDS011;28756;49.064;9.290;2023-07-24T08:01:06;8.70;;;6.00;;
43152;SDS011;28756;49.064;9.290;2023-07-24T08:03:32;9.38;;;5.85;;
43152;SDS011;28756;49.064;9.290;2023-07-24T08:05:59;10.02;;;5.97;;
43152;SDS011;28756;49.064;9.290;2023-07-24T08:08:25;9.10;;;6.35;;
43152;SDS011;28756;49.064;9.290;2023-07-24T08:10:51;8.18;;;5.78;;
43152;SDS011;28756;49.064;9.290;2023-07-24T08:13:17;6.95;;;5.15;;
43152;SDS011;28756;49.064;9.290;2023-07-24T08:15:43;12.93;;;6.47;;
43152;SDS011;28756;49.064;9.290;2023-07-24T08:18:09;11.65;;;6.15;;
43152;SDS011;28756;49.064;9.290;2023-07-24T08:20:35;9.90;;;6.28;;
43152;SDS011;28756;49.064;9.290;2023-07-24T08:23:02;10.00;;;6.53;;
43152;SDS011;28756;49.064;9.290;2023-07-24T08:25:28;7.55;;;5.72;;
43152;SDS011;28756;49.064;9.290;2023-07-24T08:27:54;9.55;;;6.13;;
43152;SDS011;28756;49.064;9.290;2023-07-24T08:30:20;11.10;;;5.88;;
43152;SDS011;28756;49.064;9.290;2023-07-24T08:32:45;8.65;;;6.13;;
43152;SDS011;28756;49.064;9.290;2023-07-24T08:35:12;8.05;;;5.60;;
43152;SDS011;28756;49.064;9.290;2023-07-24T08:37:38;6.55;;;5.13;;
43152;SDS011;28756;49.064;9.290;2023-07-24T08:40:09;8.63;;;5.90;;
43152;SDS011;28756;49.064;9.290;2023-07-24T08:42:38;7.65;;;5.85;;
43152;SDS011;28756;49.064;9.290;2023-07-24T08:45:13;12.50;;;6.22;;
43152;SDS011;28756;49.064;9.290;2023-07-24T08:47:43;8.65;;;6.63;;
43152;SDS011;28756;49.064;9.290;2023-07-24T08:50:10;9.23;;;6.47;;
43152;SDS011;28756;49.064;9.290;2023-07-24T08:52:39;9.60;;;7.18;;
43152;SDS011;28756;49.064;9.290;2023-07-24T08:55:07;8.80;;;6.45;;
43152;SDS011;28756;49.064;9.290;2023-07-24T08:57:34;8.45;;;6.45;;
43152;SDS011;28756;49.064;9.290;2023-07-24T09:00:00;10.50;;;7.05;;
43152;SDS011;28756;49.064;9.290;2023-07-24T09:02:33;9.43;;;6.60;;
43152;SDS011;28756;49.064;9.290;2023-07-24T09:05:00;8.27;;;6.40;;
43152;SDS011;28756;49.064;9.290;2023-07-24T09:07:27;9.80;;;6.97;;
43152;SDS011;28756;49.064;9.290;2023-07-24T09:09:54;9.10;;;6.20;;
43152;SDS011;28756;49.064;9.290;2023-07-24T09:12:21;8.88;;;6.43;;
43152;SDS011;28756;49.064;9.290;2023-07-24T09:14:48;9.70;;;6.90;;
43152;SDS011;28756;49.064;9.290;2023-07-24T09:17:25;8.57;;;6.07;;
43152;SDS011;28756;49.064;9.290;2023-07-24T09:19:55;10.82;;;5.95;;
43152;SDS011;28756;49.064;9.290;2023-07-24T09:22:26;8.13;;;5.50;;
43152;SDS011;28756;49.064;9.290;2023-07-24T09:24:53;8.98;;;6.18;;
43152;SDS011;28756;49.064;9.290;2023-07-24T09:27:23;8.40;;;6.22;;
43152;SDS011;28756;49.064;9.290;2023-07-24T09:29:52;9.13;;;6.10;;
43152;SDS011;28756;49.064;9.290;2023-07-24T09:32:24;10.00;;;6.47;;
43152;SDS011;28756;49.064;9.290;2023-07-24T09:34:52;9.48;;;6.30;;
43152;SDS011;28756;49.064;9.290;2023-07-24T09:37:33;8.35;;;5.95;;
43152;SDS011;28756;49.064;9.290;2023-07-24T09:39:59;7.20;;;5.30;;
43152;SDS011;28756;49.064;9.290;2023-07-24T09:42:32;10.18;;;6.95;;
43152;SDS011;28756;49.064;9.290;2023-07-24T09:45:02;8.75;;;6.38;;
43152;SDS011;28756;49.064;9.290;2023-07-24T09:47:32;8.15;;;6.10;;
43152;SDS011;28756;49.064;9.290;2023-07-24T09:49:59;9.23;;;6.53;;
43152;SDS011;28756;49.064;9.290;2023-07-24T09:52:29;8.80;;;6.55;;
43152;SDS011;28756;49.064;9.290;2023-07-24T09:57:50;11.48;;;6.25;;
43152;SDS011;28756;49.064;9.290;2023-07-24T10:00:19;8.75;;;6.20;;
43152;SDS011;28756;49.064;9.290;2023-07-24T10:02:46;10.00;;;6.40;;
43152;SDS011;28756;49.064;9.290;2023-07-24T10:05:13;9.43;;;6.00;;
43152;SDS011;28756;49.064;9.290;2023-07-24T10:07:40;6.80;;;5.43;;
43152;SDS011;28756;49.064;9.290;2023-07-24T10:10:07;8.57;;;5.30;;
43152;SDS011;28756;49.064;9.290;2023-07-24T10:12:33;8.70;;;5.57;;
43152;SDS011;28756;49.064;9.290;2023-07-24T10:15:01;9.45;;;5.80;;
43152;SDS011;28756;49.064;9.290;2023-07-24T10:17:37;8.15;;;5.47;;
43152;SDS011;28756;49.064;9.290;2023-07-24T10:20:06;6.68;;;5.50;;
43152;SDS011;28756;49.064;9.290;2023-07-24T10:22:34;8.90;;;5.60;;
43152;SDS011;28756;49.064;9.290;2023-07-24T10:25:02;8.18;;;5.35;;
43152;SDS011;28756;49.064;9.290;2023-07-24T10:27:29;9.48;;;5.65;;
43152;SDS011;28756;49.064;9.290;2023-07-24T10:29:59;9.02;;;5.65;;
43152;SDS011;28756;49.064;9.290;2023-07-24T10:32:29;7.50;;;5.35;;
43152;SDS011;28756;49.064;9.290;2023-07-24T10:34:59;8.38;;;5.80;;
43152;SDS011;28756;49.064;9.290;2023-07-24T10:37:36;8.73;;;5.65;;
43152;SDS011;28756;49.064;9.290;2023-07-24T10:40:03;9.10;;;6.03;;
43152;SDS011;28756;49.064;9.290;2023-07-24T10:42:30;8.65;;;5.93;;
43152;SDS011;28756;49.064;9.290;2023-07-24T10:45:17;8.15;;;5.45;;
43152;SDS011;28756;49.064;9.290;2023-07-24T10:47:42;9.35;;;5.50;;
43152;SDS011;28756;49.064;9.290;2023-07-24T10:50:08;10.50;;;6.10;;
43152;SDS011;28756;49.064;9.290;2023-07-24T10:52:34;8.88;;;6.03;;
43152;SDS011;28756;49.064;9.290;2023-07-24T10:55:03;9.88;;;5.45;;
43152;SDS011;28756;49.064;9.290;2023-07-24T10:57:29;9.18;;;5.75;;
43152;SDS011;28756;49.064;9.290;2023-07-24T10:59:56;10.55;;;6.03;;
43152;SDS011;28756;49.064;9.290;2023-07-24T11:02:22;10.18;;;6.10;;
43152;SDS011;28756;49.064;9.290;2023-07-24T11:04:48;8.90;;;5.90;;
43152;SDS011;28756;49.064;9.290;2023-07-24T11:07:14;7.93;;;5.50;;
43152;SDS011;28756;49.064;9.290;2023-07-24T11:09:40;10.35;;;5.25;;
43152;SDS011;28756;49.064;9.290;2023-07-24T11:12:10;8.30;;;5.88;;
43152;SDS011;28756;49.064;9.290;2023-07-24T11:14:50;6.57;;;5.10;;
43152;SDS011;28756;49.064;9.290;2023-07-24T11:17:19;5.80;;;4.95;;
43152;SDS011;28756;49.064;9.290;2023-07-24T11:19:45;7.05;;;5.13;;
43152;SDS011;28756;49.064;9.290;2023-07-24T11:22:11;7.75;;;5.05;;
43152;SDS011;28756;49.064;9.290;2023-07-24T11:24:45;9.18;;;5.70;;
43152;SDS011;28756;49.064;9.290;2023-07-24T11:27:15;7.00;;;5.22;;
43152;SDS011;28756;49.064;9.290;2023-07-24T11:29:46;6.88;;;4.97;;
43152;SDS011;28756;49.064;9.290;2023-07-24T11:32:17;5.75;;;4.57;;
43152;SDS011;28756;49.064;9.290;2023-07-24T11:34:46;6.47;;;4.72;;
43152;SDS011;28756;49.064;9.290;2023-07-24T11:37:14;6.47;;;4.53;;
43152;SDS011;28756;49.064;9.290;2023-07-24T11:39:41;6.50;;;4.60;;
43152;SDS011;28756;49.064;9.290;2023-07-24T11:42:07;6.18;;;4.43;;
43152;SDS011;28756;49.064;9.290;2023-07-24T11:44:33;6.35;;;4.88;;
43152;SDS011;28756;49.064;9.290;2023-07-24T11:47:05;5.93;;;4.75;;
43152;SDS011;28756;49.064;9.290;2023-07-24T11:49:31;6.20;;;4.32;;
43152;SDS011;28756;49.064;9.290;2023-07-24T11:52:04;6.38;;;4.75;;
43152;SDS011;28756;49.064;9.290;2023-07-24T11:54:34;5.60;;;4.38;;
43152;SDS011;28756;49.064;9.290;2023-07-24T11:57:01;5.45;;;4.20;;
43152;SDS011;28756;49.064;9.290;2023-07-24T11:59:27;6.60;;;4.70;;
43152;SDS011;28756;49.064;9.290;2023-07-24T12:01:52;6.03;;;4.43;;
43152;SDS011;28756;49.064;9.290;2023-07-24T12:04:18;5.75;;;4.35;;
43152;SDS011;28756;49.064;9.290;2023-07-24T12:06:45;5.43;;;4.45;;
43152;SDS011;28756;49.064;9.290;2023-07-24T12:09:11;7.60;;;5.20;;
43152;SDS011;28756;49.064;9.290;2023-07-24T12:11:38;6.85;;;5.05;;
43152;SDS011;28756;49.064;9.290;2023-07-24T12:14:09;6.47;;;4.85;;
43152;SDS011;28756;49.064;9.290;2023-07-24T12:16:35;5.85;;;4.38;;
43152;SDS011;28756;49.064;9.290;2023-07-24T12:19:01;6.25;;;5.10;;
43152;SDS011;28756;49.064;9.290;2023-07-24T12:21:27;7.53;;;4.38;;
43152;SDS011;28756;49.064;9.290;2023-07-24T12:23:53;9.00;;;4.88;;
43152;SDS011;28756;49.064;9.290;2023-07-24T12:26:19;5.30;;;3.95;;
43152;SDS011;28756;49.064;9.290;2023-07-24T12:28:45;8.20;;;4.57;;
43152;SDS011;28756;49.064;9.290;2023-07-24T12:31:11;7.18;;;4.68;;
43152;SDS011;28756;49.064;9.290;2023-07-24T12:33:37;5.47;;;4.65;;
43152;SDS011;28756;49.064;9.290;2023-07-24T12:36:02;6.50;;;4.20;;
43152;SDS011;28756;49.064;9.290;2023-07-24T12:38:29;6.20;;;4.43;;
43152;SDS011;28756;49.064;9.290;2023-07-24T12:40:55;9.68;;;4.80;;
43152;SDS011;28756;49.064;9.290;2023-07-24T12:43:21;6.00;;;4.28;;
43152;SDS011;28756;49.064;9.290;2023-07-24T12:45:46;5.30;;;4.18;;
43152;SDS011;28756;49.064;9.290;2023-07-24T12:48:13;5.60;;;3.80;;
43152;SDS011;28756;49.064;9.290;2023-07-24T12:50:38;5.13;;;4.25;;
43152;SDS011;28756;49.064;9.290;2023-07-24T12:53:04;5.22;;;4.00;;
43152;SDS011;28756;49.064;9.290;2023-07-24T12:55:30;5.05;;;3.78;;
43152;SDS011;28756;49.064;9.290;2023-07-24T12:57:56;5.20;;;4.05;;
43152;SDS011;28756;49.064;9.290;2023-07-24T13:00:22;6.22;;;4.38;;
43152;SDS011;28756;49.064;9.290;2023-07-24T13:02:48;6.28;;;4.22;;
43152;SDS011;28756;49.064;9.290;2023-07-24T13:05:14;7.38;;;4.30;;
43152;SDS011;28756;49.064;9.290;2023-07-24T13:07:40;5.38;;;4.20;;
43152;SDS011;28756;49.064;9.290;2023-07-24T13:10:06;5.50;;;4.10;;
43152;SDS011;28756;49.064;9.290;2023-07-24T13:12:33;6.18;;;4.15;;
43152;SDS011;28756;49.064;9.290;2023-07-24T13:14:58;7.70;;;4.45;;
43152;SDS011;28756;49.064;9.290;2023-07-24T13:17:24;5.97;;;4.38;;
43152;SDS011;28756;49.064;9.290;2023-07-24T13:19:53;5.30;;;4.00;;
43152;SDS011;28756;49.064;9.290;2023-07-24T13:22:19;6.38;;;4.30;;
43152;SDS011;28756;49.064;9.290;2023-07-24T13:24:45;5.72;;;4.28;;
43152;SDS011;28756;49.064;9.290;2023-07-24T13:27:11;5.00;;;3.78;;
43152;SDS011;28756;49.064;9.290;2023-07-24T13:29:36;6.50;;;4.35;;
43152;SDS011;28756;49.064;9.290;2023-07-24T13:32:02;5.85;;;4.20;;
43152;SDS011;28756;49.064;9.290;2023-07-24T13:34:28;6.93;;;4.30;;
43152;SDS011;28756;49.064;9.290;2023-07-24T13:36:54;6.60;;;4.60;;
43152;SDS011;28756;49.064;9.290;2023-07-24T13:39:20;5.90;;;4.57;;
43152;SDS011;28756;49.064;9.290;2023-07-24T13:41:46;5.63;;;4.15;;
43152;SDS011;28756;49.064;9.290;2023-07-24T13:44:12;6.45;;;4.38;;
43152;SDS011;28756;49.064;9.290;2023-07-24T13:46:38;6.07;;;4.03;;
43152;SDS011;28756;49.064;9.290;2023-07-24T13:49:04;5.72;;;4.30;;
43152;SDS011;28756;49.064;9.290;2023-07-24T13:51:30;5.38;;;4.10;;
43152;SDS011;28756;49.064;9.290;2023-07-24T13:53:56;7.28;;;4.57;;
43152;SDS011;28756;49.064;9.290;2023-07-24T13:56:21;5.13;;;4.05;;
43152;SDS011;28756;49.064;9.290;2023-07-24T13:58:48;7.57;;;4.88;;
43152;SDS011;28756;49.064;9.290;2023-07-24T14:01:14;6.32;;;4.05;;
43152;SDS011;28756;49.064;9.290;2023-07-24T14:03:40;5.35;;;4.03;;
43152;SDS011;28756;49.064;9.290;2023-07-24T14:06:06;5.50;;;3.65;;
43152;SDS011;28756;49.064;9.290;2023-07-24T14:08:32;6.88;;;4.57;;
43152;SDS011;28756;49.064;9.290;2023-07-24T14:10:57;5.13;;;3.97;;
43152;SDS011;28756;49.064;9.290;2023-07-24T14:13:23;5.50;;;4.15;;
43152;SDS011;28756;49.064;9.290;2023-07-24T14:15:49;7.07;;;4.50;;
43152;SDS011;28756;49.064;9.290;2023-07-24T14:18:15;5.53;;;4.00;;
43152;SDS011;28756;49.064;9.290;2023-07-24T14:20:41;6.40;;;4.10;;
43152;SDS011;28756;49.064;9.290;2023-07-24T14:23:07;6.25;;;4.78;;
43152;SDS011;28756;49.064;9.290;2023-07-24T14:25:33;6.07;;;4.30;;
43152;SDS011;28756;49.064;9.290;2023-07-24T14:27:59;8.98;;;4.53;;
43152;SDS011;28756;49.064;9.290;2023-07-24T14:30:24;5.10;;;4.07;;
43152;SDS011;28756;49.064;9.290;2023-07-24T14:32:50;6.40;;;4.00;;
43152;SDS011;28756;49.064;9.290;2023-07-24T14:35:16;5.25;;;4.18;;
43152;SDS011;28756;49.064;9.290;2023-07-24T14:37:42;5.35;;;4.10;;
43152;SDS011;28756;49.064;9.290;2023-07-24T14:40:09;5.47;;;3.70;;
43152;SDS011;28756;49.064;9.290;2023-07-24T14:42:37;6.40;;;4.10;;
43152;SDS011;28756;49.064;9.290;2023-07-24T14:45:03;5.05;;;3.83;;
43152;SDS011;28756;49.064;9.290;2023-07-24T14:47:29;4.95;;;3.90;;
43152;SDS011;28756;49.064;9.290;2023-07-24T14:49:56;7.13;;;3.92;;
43152;SDS011;28756;49.064;9.290;2023-07-24T14:52:23;4.97;;;4.00;;